createdAt,value
2023-01-18T00:01:34.912Z,9.70
2023-01-18T00:04:02.722Z,9.60
2023-01-18T00:06:30.860Z,10.50
2023-01-18T00:08:58.732Z,9.10
2023-01-18T00:11:26.632Z,9.20
2023-01-18T00:13:54.506Z,9.60
2023-01-18T00:16:22.621Z,9.00
2023-01-18T00:18:53.331Z,10.00
2023-01-18T00:21:21.556Z,9.00
2023-01-18T00:23:49.450Z,8.90
2023-01-18T00:26:17.257Z,9.70
2023-01-18T00:28:45.231Z,9.60
2023-01-18T00:31:20.986Z,9.40
2023-01-18T00:33:50.346Z,9.10
2023-01-18T00:36:18.858Z,9.20
2023-01-18T00:38:51.531Z,9.60
2023-01-18T00:41:21.567Z,9.20
2023-01-18T00:43:50.300Z,9.50
2023-01-18T00:46:23.993Z,8.80
2023-01-18T00:48:52.905Z,8.20
2023-01-18T00:51:23.626Z,8.20
2023-01-18T00:53:51.767Z,8.30
2023-01-18T00:56:21.876Z,7.80
2023-01-18T00:58:49.916Z,8.60
2023-01-18T01:01:17.926Z,10.90
2023-01-18T01:04:04.587Z,10.50
2023-01-18T01:06:47.077Z,8.10
2023-01-18T01:09:17.585Z,7.50
2023-01-18T01:12:04.548Z,6.90
2023-01-18T01:14:53.364Z,7.40
2023-01-18T01:17:39.857Z,7.30
2023-01-18T01:20:27.954Z,8.00
2023-01-18T01:23:14.542Z,7.70
2023-01-18T01:26:01.080Z,7.90
2023-01-18T01:28:29.004Z,7.20
2023-01-18T01:31:00.999Z,7.00
2023-01-18T01:33:30.950Z,6.70
2023-01-18T01:36:07.547Z,6.50
2023-01-18T01:38:35.753Z,7.40
2023-01-18T01:41:09.032Z,7.70
2023-01-18T01:43:59.746Z,7.70
2023-01-18T01:46:52.442Z,8.10
2023-01-18T01:49:32.332Z,8.10
2023-01-18T01:52:16.978Z,7.10
2023-01-18T01:55:01.744Z,8.20
2023-01-18T01:57:34.733Z,7.70
2023-01-18T02:00:08.319Z,11.60
2023-01-18T02:02:37.853Z,16.00
2023-01-18T02:05:08.103Z,10.60
2023-01-18T02:07:36.298Z,9.40
2023-01-18T02:10:08.127Z,10.40
2023-01-18T02:12:40.091Z,8.80
2023-01-18T02:15:08.996Z,8.40
2023-01-18T02:17:49.519Z,6.50
2023-01-18T02:20:24.179Z,5.90
2023-01-18T02:23:28.633Z,4.80
2023-01-18T02:25:56.570Z,5.60
2023-01-18T02:28:33.036Z,4.60
2023-01-18T02:31:14.665Z,4.40
2023-01-18T02:33:56.404Z,5.20
2023-01-18T02:36:51.735Z,4.50
2023-01-18T02:39:38.454Z,4.50
2023-01-18T02:42:38.409Z,4.90
2023-01-18T02:46:00.112Z,4.20
2023-01-18T02:48:34.312Z,3.80
2023-01-18T02:51:02.472Z,4.50
2023-01-18T02:53:31.565Z,4.70
2023-01-18T02:56:05.080Z,5.00
2023-01-18T02:58:58.074Z,5.30
2023-01-18T03:01:38.259Z,5.50
2023-01-18T03:04:16.211Z,4.90
2023-01-18T03:06:48.900Z,4.80
2023-01-18T03:09:21.471Z,5.00
2023-01-18T03:12:12.856Z,4.70
2023-01-18T03:14:51.985Z,4.80
2023-01-18T03:17:34.030Z,3.80
2023-01-18T03:20:10.096Z,4.30
2023-01-18T03:23:21.160Z,3.80
2023-01-18T03:25:51.833Z,3.30
2023-01-18T03:28:47.631Z,3.90
2023-01-18T03:31:38.151Z,3.60
2023-01-18T03:34:22.679Z,4.20
2023-01-18T03:36:53.128Z,4.10
2023-01-18T03:39:20.968Z,3.60
2023-01-18T03:41:52.728Z,3.70
2023-01-18T03:44:27.792Z,4.10
2023-01-18T03:46:57.330Z,3.30
2023-01-18T03:49:27.530Z,4.30
2023-01-18T03:51:58.968Z,4.30
2023-01-18T03:54:51.467Z,4.30
2023-01-18T03:57:38.066Z,4.00
2023-01-18T04:00:12.963Z,3.90
2023-01-18T04:02:44.344Z,3.70
2023-01-18T04:05:12.868Z,3.20
2023-01-18T04:07:41.055Z,3.40
2023-01-18T04:10:10.692Z,3.30
2023-01-18T04:12:38.998Z,3.10
2023-01-18T04:15:08.277Z,2.90
2023-01-18T04:17:36.497Z,3.30
2023-01-18T04:20:05.089Z,3.00
2023-01-18T04:22:36.373Z,3.20
2023-01-18T04:25:04.586Z,2.70
2023-01-18T04:27:32.533Z,2.70
2023-01-18T04:30:00.639Z,3.00
2023-01-18T04:32:29.169Z,2.80
2023-01-18T04:34:57.106Z,2.70
2023-01-18T04:37:30.461Z,2.70
2023-01-18T04:39:58.346Z,2.50
2023-01-18T04:42:26.704Z,2.90
2023-01-18T04:44:54.733Z,2.70
2023-01-18T04:47:23.240Z,2.50
2023-01-18T04:49:51.088Z,2.40
2023-01-18T04:52:19.391Z,2.60
2023-01-18T04:54:47.365Z,2.40
2023-01-18T04:57:15.472Z,2.40
2023-01-18T04:59:45.946Z,2.30
2023-01-18T05:02:15.468Z,2.60
2023-01-18T05:04:43.860Z,2.70
2023-01-18T05:07:11.904Z,2.70
2023-01-18T05:09:39.747Z,2.70
2023-01-18T05:12:07.779Z,2.70
2023-01-18T05:14:35.689Z,2.90
2023-01-18T05:17:03.629Z,3.10
2023-01-18T05:19:31.572Z,2.80
2023-01-18T05:21:59.534Z,2.70
2023-01-18T05:24:29.778Z,2.70
2023-01-18T05:26:58.369Z,2.30
2023-01-18T05:29:26.261Z,3.10
2023-01-18T05:31:54.253Z,2.50
2023-01-18T05:34:22.546Z,2.60
2023-01-18T05:36:50.481Z,3.50
2023-01-18T05:39:18.290Z,2.70
2023-01-18T05:41:46.279Z,2.40
2023-01-18T05:44:14.059Z,3.30
2023-01-18T05:46:41.979Z,2.60
2023-01-18T05:49:09.864Z,2.90
2023-01-18T05:51:37.881Z,3.10
2023-01-18T05:54:05.761Z,3.00
2023-01-18T05:56:34.172Z,2.60
2023-01-18T05:59:02.159Z,2.90
2023-01-18T06:01:29.991Z,3.10
2023-01-18T06:03:57.975Z,3.70
2023-01-18T06:06:25.997Z,4.00
2023-01-18T06:08:53.761Z,4.60
2023-01-18T06:11:21.682Z,3.80
2023-01-18T06:13:49.560Z,3.60
2023-01-18T06:16:17.424Z,3.50
2023-01-18T06:18:45.518Z,4.00
2023-01-18T06:21:14.066Z,3.20
2023-01-18T06:23:42.747Z,3.00
2023-01-18T06:26:10.546Z,2.60
2023-01-18T06:28:38.500Z,3.30
2023-01-18T06:31:08.374Z,2.80
2023-01-18T06:33:36.790Z,2.60
2023-01-18T06:36:05.845Z,2.90
2023-01-18T06:38:33.984Z,3.50
2023-01-18T06:41:01.951Z,2.80
2023-01-18T06:43:30.114Z,2.70
2023-01-18T06:45:58.554Z,3.20
2023-01-18T06:48:27.454Z,2.70
2023-01-18T06:50:58.451Z,2.80
2023-01-18T06:53:26.782Z,3.00
2023-01-18T06:55:57.033Z,3.40
2023-01-18T06:58:26.523Z,3.10
2023-01-18T07:00:56.253Z,3.30
2023-01-18T07:03:26.584Z,3.20
2023-01-18T07:05:55.954Z,3.20
2023-01-18T07:08:24.878Z,3.40
2023-01-18T07:10:53.709Z,3.50
2023-01-18T07:13:23.968Z,3.10
2023-01-18T07:16:00.727Z,3.40
2023-01-18T07:18:30.600Z,3.10
2023-01-18T07:20:59.468Z,2.90
2023-01-18T07:23:28.783Z,3.10
2023-01-18T07:26:05.207Z,3.70
2023-01-18T07:28:34.070Z,3.50
2023-01-18T07:31:03.833Z,2.90
2023-01-18T07:33:32.132Z,2.90
2023-01-18T07:36:00.072Z,1.30
2023-01-18T07:38:28.472Z,1.20
2023-01-18T07:41:14.410Z,1.60
2023-01-18T07:43:44.971Z,1.40
2023-01-18T07:46:18.531Z,1.10
2023-01-18T07:48:47.893Z,0.90
2023-01-18T07:51:16.114Z,1.00
2023-01-18T07:53:48.535Z,1.10
2023-01-18T07:56:17.971Z,1.10
2023-01-18T07:58:46.379Z,1.30
2023-01-18T08:01:19.207Z,1.50
2023-01-18T08:03:49.099Z,1.50
2023-01-18T08:06:25.135Z,1.20
2023-01-18T08:08:56.069Z,1.50
2023-01-18T08:11:24.241Z,1.50
2023-01-18T08:13:52.928Z,1.40
2023-01-18T08:16:21.029Z,1.50
2023-01-18T08:18:50.416Z,1.90
2023-01-18T08:21:18.668Z,2.00
2023-01-18T08:23:46.466Z,1.30
2023-01-18T08:26:15.339Z,1.10
2023-01-18T08:28:44.861Z,1.30
2023-01-18T08:31:16.556Z,6.20
2023-01-18T08:33:47.580Z,7.10
2023-01-18T08:36:21.527Z,1.90
2023-01-18T08:41:21.595Z,1.60
2023-01-18T08:43:51.031Z,1.50
2023-01-18T08:46:19.272Z,1.40
2023-01-18T08:48:54.825Z,1.20
2023-01-18T08:51:25.953Z,1.70
2023-01-18T08:53:57.428Z,1.50
2023-01-18T08:56:25.807Z,1.80
2023-01-18T08:59:01.067Z,1.60
2023-01-18T09:01:29.402Z,1.60
2023-01-18T09:03:58.524Z,1.90
2023-01-18T09:06:48.472Z,2.20
2023-01-18T09:09:16.340Z,2.70
2023-01-18T09:11:44.326Z,2.90
2023-01-18T09:14:12.258Z,3.00
2023-01-18T09:16:40.137Z,3.00
2023-01-18T09:19:08.158Z,3.10
2023-01-18T09:21:36.259Z,3.10
2023-01-18T09:24:04.447Z,2.80
2023-01-18T09:26:32.479Z,3.00
2023-01-18T09:29:00.297Z,2.90
2023-01-18T09:31:28.947Z,2.90
2023-01-18T09:34:09.569Z,2.90
2023-01-18T09:36:46.120Z,3.20
2023-01-18T09:39:13.966Z,3.60
2023-01-18T09:41:44.750Z,2.60
2023-01-18T09:44:30.010Z,2.60
2023-01-18T09:47:34.200Z,2.50
2023-01-18T09:50:18.615Z,2.10
2023-01-18T09:53:16.352Z,2.00
2023-01-18T09:55:57.124Z,1.90
2023-01-18T09:58:52.453Z,2.50
2023-01-18T10:01:25.499Z,2.10
2023-01-18T10:03:59.121Z,2.10
2023-01-18T10:06:29.476Z,2.30
2023-01-18T10:09:04.490Z,2.70
2023-01-18T10:11:54.979Z,3.60
2023-01-18T10:14:22.818Z,4.30
2023-01-18T10:16:58.192Z,4.30
2023-01-18T10:19:29.644Z,3.20
2023-01-18T10:22:13.303Z,3.20
2023-01-18T10:25:02.779Z,3.60
2023-01-18T10:27:44.999Z,3.50
2023-01-18T10:30:30.983Z,3.40
2023-01-18T10:33:02.109Z,3.20
2023-01-18T10:35:30.191Z,3.10
2023-01-18T10:38:03.849Z,4.60
2023-01-18T10:40:33.543Z,4.90
2023-01-18T10:43:04.054Z,5.00
2023-01-18T10:45:34.845Z,4.50
2023-01-18T10:48:17.951Z,4.10
2023-01-18T10:50:53.268Z,4.10
2023-01-18T10:53:31.508Z,4.40
2023-01-18T10:56:19.690Z,4.20
2023-01-18T10:58:50.666Z,4.10
2023-01-18T11:01:22.584Z,4.00
2023-01-18T11:04:06.772Z,5.70
2023-01-18T11:09:34.658Z,4.50
2023-01-18T11:12:34.872Z,2.20
2023-01-18T11:15:15.075Z,2.00
2023-01-18T11:17:56.380Z,1.60
2023-01-18T11:20:44.665Z,1.30
2023-01-18T11:23:23.471Z,1.30
2023-01-18T11:26:00.884Z,1.10
2023-01-18T11:28:34.939Z,1.10
2023-01-18T11:31:15.195Z,1.00
2023-01-18T11:33:53.485Z,1.30
2023-01-18T11:36:37.782Z,2.00
2023-01-18T11:39:26.652Z,2.00
2023-01-18T11:42:14.142Z,2.50
2023-01-18T11:44:48.506Z,2.10
2023-01-18T11:47:55.333Z,2.50
2023-01-18T11:50:32.075Z,2.40
2023-01-18T11:53:21.593Z,1.80
2023-01-18T11:56:06.034Z,2.40
2023-01-18T11:58:35.652Z,2.00
2023-01-18T12:01:06.566Z,2.00
2023-01-18T12:03:57.218Z,1.70
2023-01-18T12:06:41.546Z,1.80
2023-01-18T12:09:30.725Z,1.40
2023-01-18T12:12:35.458Z,1.90
2023-01-18T12:15:20.832Z,1.50
2023-01-18T12:18:13.506Z,1.50
2023-01-18T12:20:58.315Z,1.70
2023-01-18T12:23:55.433Z,2.10
2023-01-18T12:26:43.224Z,1.40
2023-01-18T12:29:39.643Z,2.30
2023-01-18T12:32:25.835Z,1.60
2023-01-18T12:34:53.738Z,1.50
2023-01-18T12:37:54.601Z,1.90
2023-01-18T12:40:44.038Z,4.90
2023-01-18T12:43:28.540Z,1.90
2023-01-18T12:46:15.937Z,1.00
2023-01-18T12:48:53.266Z,1.30
2023-01-18T12:51:24.504Z,1.40
2023-01-18T12:54:07.217Z,1.00
2023-01-18T12:56:45.810Z,0.90
2023-01-18T12:59:36.073Z,1.00
2023-01-18T13:02:24.396Z,0.90
2023-01-18T13:05:00.160Z,0.70
2023-01-18T13:07:36.317Z,1.30
2023-01-18T13:10:28.808Z,1.30
2023-01-18T13:12:58.908Z,0.70
2023-01-18T13:15:26.804Z,1.10
2023-01-18T13:18:26.283Z,1.70
2023-01-18T13:21:10.067Z,1.20
2023-01-18T13:24:02.667Z,1.30
2023-01-18T13:26:34.595Z,1.60
2023-01-18T13:29:16.768Z,0.80
2023-01-18T13:31:45.049Z,2.50
2023-01-18T13:34:25.714Z,1.50
2023-01-18T13:37:02.527Z,0.80
2023-01-18T13:39:47.259Z,1.00
2023-01-18T13:45:15.879Z,0.80
2023-01-18T13:48:05.557Z,1.80
2023-01-18T13:50:39.582Z,1.90
2023-01-18T13:53:13.912Z,1.90
2023-01-18T13:56:09.629Z,1.40
2023-01-18T13:58:38.844Z,1.60
2023-01-18T14:01:18.672Z,1.60
2023-01-18T14:03:51.176Z,0.90
2023-01-18T14:06:32.979Z,0.80
2023-01-18T14:09:18.337Z,0.90
2023-01-18T14:11:58.914Z,1.40
2023-01-18T14:14:31.270Z,1.30
2023-01-18T14:17:15.303Z,1.10
2023-01-18T14:22:42.827Z,2.40
2023-01-18T14:25:30.618Z,2.30
2023-01-18T14:28:16.759Z,1.80
2023-01-18T14:30:47.504Z,1.50
2023-01-18T14:33:17.913Z,1.80
2023-01-18T14:35:54.042Z,1.40
2023-01-18T14:38:22.101Z,1.70
2023-01-18T14:40:53.720Z,1.80
2023-01-18T14:43:27.226Z,1.50
2023-01-18T14:46:03.807Z,1.40
2023-01-18T14:48:35.066Z,1.30
2023-01-18T14:51:05.263Z,1.60
2023-01-18T14:53:41.407Z,1.70
2023-01-18T14:56:15.042Z,1.70
2023-01-18T15:01:30.856Z,1.50
2023-01-18T15:04:04.115Z,1.30
2023-01-18T15:06:33.832Z,1.10
2023-01-18T15:09:05.179Z,1.50
2023-01-18T15:11:36.471Z,1.50
2023-01-18T15:14:11.509Z,1.40
2023-01-18T15:16:40.341Z,1.60
2023-01-18T15:19:16.871Z,1.80
2023-01-18T15:21:46.092Z,1.90
2023-01-18T15:24:18.308Z,1.80
2023-01-18T15:26:52.413Z,1.50
2023-01-18T15:29:26.552Z,1.80
2023-01-18T15:31:59.358Z,1.90
2023-01-18T15:34:33.758Z,2.00
2023-01-18T15:37:04.596Z,1.70
2023-01-18T15:39:33.062Z,1.60
2023-01-18T15:42:09.190Z,1.90
2023-01-18T15:44:52.902Z,1.40
2023-01-18T15:47:28.615Z,1.90
2023-01-18T15:49:58.827Z,2.50
2023-01-18T15:52:43.704Z,2.40
2023-01-18T15:55:48.441Z,2.30
2023-01-18T15:58:36.857Z,2.80
2023-01-18T16:01:19.850Z,3.00
2023-01-18T16:03:47.931Z,3.30
2023-01-18T16:06:18.923Z,3.00
2023-01-18T16:09:13.778Z,4.40
2023-01-18T16:11:47.633Z,5.50
2023-01-18T16:19:44.739Z,5.10
2023-01-18T16:22:26.359Z,5.60
2023-01-18T16:25:02.371Z,5.90
2023-01-18T16:27:32.415Z,7.20
2023-01-18T16:30:08.437Z,6.80
2023-01-18T16:32:36.634Z,5.30
2023-01-18T16:35:17.548Z,5.60
2023-01-18T16:37:45.943Z,4.00
2023-01-18T16:40:16.912Z,4.70
2023-01-18T16:43:20.194Z,3.70
2023-01-18T16:45:51.928Z,2.90
2023-01-18T16:49:21.717Z,2.30
2023-01-18T16:52:18.630Z,2.80
2023-01-18T16:54:46.641Z,3.90
2023-01-18T16:57:23.209Z,3.10
2023-01-18T16:59:52.163Z,2.70
2023-01-18T17:02:20.200Z,3.00
2023-01-18T17:04:48.345Z,2.80
2023-01-18T17:07:16.319Z,2.80
2023-01-18T17:09:48.653Z,3.00
2023-01-18T17:12:17.066Z,2.80
2023-01-18T17:14:44.877Z,2.50
2023-01-18T17:17:13.360Z,2.30
2023-01-18T17:19:43.966Z,1.90
2023-01-18T17:22:11.850Z,2.20
2023-01-18T17:24:39.911Z,2.40
2023-01-18T17:27:11.329Z,2.70
2023-01-18T17:29:39.402Z,4.40
2023-01-18T17:32:09.604Z,5.60
2023-01-18T17:34:37.498Z,5.40
2023-01-18T17:37:05.423Z,6.30
2023-01-18T17:39:43.294Z,6.90
2023-01-18T17:42:29.711Z,6.70
2023-01-18T17:45:05.451Z,7.60
2023-01-18T17:47:34.724Z,7.50
2023-01-18T17:50:09.049Z,6.80
2023-01-18T17:52:38.825Z,6.90
2023-01-18T17:55:10.420Z,7.80
2023-01-18T17:57:38.590Z,8.20
2023-01-18T18:00:08.431Z,7.80
2023-01-18T18:02:36.892Z,8.30
2023-01-18T18:05:05.288Z,8.90
2023-01-18T18:07:34.075Z,8.90
2023-01-18T18:10:02.679Z,9.70
2023-01-18T18:12:33.644Z,10.40
2023-01-18T18:15:02.365Z,9.90
2023-01-18T18:17:31.604Z,9.90
2023-01-18T18:19:59.692Z,8.80
2023-01-18T18:22:28.386Z,8.30
2023-01-18T18:24:56.274Z,9.70
2023-01-18T18:27:26.665Z,9.70
2023-01-18T18:29:58.922Z,9.90
2023-01-18T18:32:26.840Z,8.40
2023-01-18T18:34:54.791Z,8.90
2023-01-18T18:37:23.542Z,7.90
2023-01-18T18:39:51.551Z,8.50
2023-01-18T18:42:19.347Z,8.00
2023-01-18T18:44:47.228Z,7.50
2023-01-18T18:47:15.123Z,6.90
2023-01-18T18:49:43.650Z,7.90
2023-01-18T18:52:11.538Z,7.00
2023-01-18T18:54:39.392Z,8.60
2023-01-18T18:57:07.583Z,8.00
2023-01-18T18:59:35.613Z,7.90
2023-01-18T19:02:03.785Z,7.40
2023-01-18T19:04:31.748Z,9.70
2023-01-18T19:07:00.404Z,9.20
2023-01-18T19:09:28.391Z,8.30
2023-01-18T19:11:56.373Z,8.00
2023-01-18T19:14:25.832Z,7.90
2023-01-18T19:16:54.227Z,11.30
2023-01-18T19:19:22.344Z,10.10
2023-01-18T19:21:50.402Z,8.40
2023-01-18T19:24:18.654Z,8.60
2023-01-18T19:26:46.509Z,9.00
2023-01-18T19:29:14.483Z,9.00
2023-01-18T19:31:42.608Z,9.00
2023-01-18T19:34:10.533Z,6.90
2023-01-18T19:36:38.419Z,5.30
2023-01-18T19:39:14.628Z,4.00
2023-01-18T19:41:49.640Z,3.30
2023-01-18T19:44:18.067Z,2.80
2023-01-18T19:46:46.023Z,2.60
2023-01-18T19:49:14.069Z,2.50
2023-01-18T19:51:43.483Z,2.70
2023-01-18T19:54:12.551Z,2.80
2023-01-18T19:56:40.426Z,3.40
2023-01-18T19:59:11.336Z,3.30
2023-01-18T20:01:39.274Z,3.20
2023-01-18T20:04:07.722Z,3.80
2023-01-18T20:06:39.860Z,4.30
2023-01-18T20:09:18.473Z,3.90
2023-01-18T20:11:48.085Z,4.20
2023-01-18T20:14:16.588Z,3.80
2023-01-18T20:16:46.019Z,4.10
2023-01-18T20:19:15.617Z,5.00
2023-01-18T20:21:43.479Z,4.90
2023-01-18T20:24:11.494Z,4.90
2023-01-18T20:26:41.703Z,5.10
2023-01-18T20:29:10.309Z,14.90
2023-01-18T20:31:40.080Z,8.10
2023-01-18T20:34:08.435Z,3.50
2023-01-18T20:36:36.707Z,4.60
2023-01-18T20:39:05.742Z,3.70
2023-01-18T20:41:33.784Z,2.60
2023-01-18T20:44:01.713Z,3.00
2023-01-18T20:46:29.814Z,2.50
2023-01-18T20:48:57.727Z,2.50
2023-01-18T20:51:25.665Z,56.60
2023-01-18T20:53:53.552Z,43.70
2023-01-18T20:56:29.111Z,31.60
2023-01-18T20:58:58.316Z,16.20
2023-01-18T21:01:32.016Z,4.60
2023-01-18T21:06:29.887Z,3.00
2023-01-18T21:09:00.014Z,2.50
2023-01-18T21:11:28.318Z,2.80
2023-01-18T21:13:59.150Z,2.60
2023-01-18T21:16:28.038Z,6.60
2023-01-18T21:18:56.654Z,10.00
2023-01-18T21:21:26.761Z,9.50
2023-01-18T21:23:54.776Z,10.00
2023-01-18T21:26:22.624Z,5.60
2023-01-18T21:28:50.427Z,6.40
2023-01-18T21:31:18.699Z,5.20
2023-01-18T21:33:46.647Z,16.90
2023-01-18T21:36:17.713Z,7.70
2023-01-18T21:38:45.929Z,8.00
2023-01-18T21:41:32.560Z,8.20
2023-01-18T21:44:19.230Z,5.20
2023-01-18T21:46:49.013Z,4.10
2023-01-18T21:49:57.629Z,3.20
2023-01-18T21:52:41.882Z,3.60
2023-01-18T21:55:10.125Z,3.30
2023-01-18T21:57:38.760Z,3.50
2023-01-18T22:00:07.669Z,3.40
2023-01-18T22:02:36.459Z,3.70
2023-01-18T22:05:05.067Z,3.50
2023-01-18T22:07:35.209Z,3.20
2023-01-18T22:10:10.844Z,3.30
2023-01-18T22:12:39.108Z,2.70
2023-01-18T22:15:07.398Z,2.50
2023-01-18T22:17:35.281Z,2.50
2023-01-18T22:20:04.579Z,3.00
2023-01-18T22:22:32.442Z,3.40
2023-01-18T22:25:02.332Z,2.50
2023-01-18T22:27:30.426Z,2.60
2023-01-18T22:29:58.351Z,2.50
2023-01-18T22:32:26.269Z,2.80
2023-01-18T22:34:54.553Z,3.00
2023-01-18T22:37:23.562Z,3.20
2023-01-18T22:39:52.300Z,3.20
2023-01-18T22:42:20.395Z,3.10
2023-01-18T22:44:48.366Z,3.90
2023-01-18T22:47:16.215Z,3.50
2023-01-18T22:49:44.130Z,3.50
2023-01-18T22:52:11.973Z,3.20
2023-01-18T22:54:40.050Z,3.20
2023-01-18T22:57:07.872Z,3.60
2023-01-18T22:59:35.772Z,3.60
2023-01-18T23:02:03.721Z,3.40
2023-01-18T23:04:33.985Z,3.70
2023-01-18T23:07:02.010Z,3.50
2023-01-18T23:09:30.076Z,3.40
2023-01-18T23:11:57.958Z,3.70
2023-01-18T23:14:44.448Z,4.00
2023-01-18T23:17:32.167Z,4.70
2023-01-18T23:20:00.218Z,4.20
2023-01-18T23:22:28.243Z,4.00
2023-01-18T23:24:56.228Z,3.70
2023-01-18T23:27:24.164Z,4.90
2023-01-18T23:29:58.627Z,4.50
2023-01-18T23:32:30.526Z,4.80
2023-01-18T23:34:59.803Z,4.60
2023-01-18T23:37:27.660Z,4.80
2023-01-18T23:40:14.528Z,4.70
2023-01-18T23:43:01.601Z,4.30
2023-01-18T23:45:48.040Z,5.20
2023-01-18T23:48:37.363Z,4.70
2023-01-18T23:51:25.419Z,5.10
2023-01-18T23:54:12.930Z,5.50
2023-01-18T23:56:40.836Z,5.30
2023-01-18T23:59:09.055Z,5.10
